• Join FlightAware (Why Join?)
  • Login
  • US Flag GB Flag 
10:14 EST


 

Airport Tracker/Info


-or-


 

Live Flight TrackerFlight Track Log ✈ FDX5124 ✈ 19-Apr-2013 ✈ KMEM - LFPG / CDG

Flight Track Log - Related Links

Times and Time Zones

All times are in EDT time to prevent confusion due to time zone crossing. See the FDX5124 flight status page for this flight to view local times or setup timezone preferences in your user account.

Time Position Orientation Groundspeed Altitude Reporting Facility
EDT Latitude Longitude Course Direction KTS MPH feet Rate Location/Type
05:18 35.0667 -89.9667 360° North 167 192 1,400  Level KMEM
05:18 35.0667 -89.9667 360° North 165 190 1,900 1,440 Climbing KMEM
05:19 35.1333 -89.9667 360° North 244 281 3,300 1,920 Climbing KMEM
05:20 35.2000 -89.9500 12° North 269 310 5,800 2,340 Climbing KMEM
05:22 35.3503 -89.8175 36° Northeast 364 419 10,200 2,040 Climbing Memphis Center
05:23 35.4439 -89.7275 38° Northeast 408 470 11,800 1,680 Climbing Memphis Center
05:24 35.5350 -89.6350 40° Northeast 450 518 13,600 1,920 Climbing Memphis Center
05:25 35.6492 -89.5217 39° Northeast 495 570 15,700 2,280 Climbing Memphis Center
05:26 35.7714 -89.4206 34° Northeast 511 588 18,200 2,340 Climbing Memphis Center
05:27 35.9019 -89.3167 33° Northeast 542 624 20,400 1,980 Climbing Memphis Center
05:33 36.7310 -88.6550 33° Northeast 596 686 31,800 1,920 Climbing FlightAware
05:33 36.8230 -88.5810 33° Northeast 590 679 32,900 840 Climbing FlightAware
05:34 36.9230 -88.4990 33° Northeast 586 674 33,000 60 Climbing FlightAware
05:35 37.0030 -88.4340 33° Northeast 588 677 33,000  Level FlightAware
05:36 37.1140 -88.3430 33° Northeast 589 678 33,000  Level FlightAware
05:36 37.1970 -88.2750 33° Northeast 589 678 33,000  Level FlightAware
05:37 37.2740 -88.2120 33° Northeast 589 678 33,000  Level FlightAware
05:38 37.4040 -88.1030 34° Northeast 591 680 33,000  Level FlightAware
05:38 37.4940 -88.0290 33° Northeast 590 679 33,000  Level FlightAware
05:39 37.5960 -87.9440 33° Northeast 592 681 33,000  Level FlightAware
05:40 37.6910 -87.8660 33° Northeast 593 682 33,000  Level FlightAware
05:41 37.7940 -87.7790 34° Northeast 594 684 33,000  Level FlightAware
05:41 37.8820 -87.7040 34° Northeast 594 684 33,000  Level FlightAware
05:42 37.9760 -87.6250 34° Northeast 596 686 33,000  Level FlightAware
05:43 38.0770 -87.5390 34° Northeast 597 687 33,000  Level FlightAware
05:43 38.1720 -87.4600 33° Northeast 597 687 33,000  Level FlightAware
05:44 38.2640 -87.3810 34° Northeast 598 688 33,000  Level FlightAware
05:45 38.3650 -87.2950 34° Northeast 599 689 33,000  Level FlightAware
05:45 38.4580 -87.2160 34° Northeast 599 689 33,000  Level FlightAware
05:46 38.5490 -87.1360 35° Northeast 600 690 33,000  Level FlightAware
05:47 38.6550 -87.0450 34° Northeast 600 690 33,000  Level FlightAware
05:48 38.7550 -86.9600 34° Northeast 600 690 33,000  Level FlightAware
05:48 38.8400 -86.8860 34° Northeast 600 690 33,000  Level FlightAware
05:49 38.9120 -86.8240 34° Northeast 601 692 33,000  Level FlightAware
05:49 39.0200 -86.7290 34° Northeast 600 690 33,000  Level FlightAware
05:50 39.1250 -86.6370 34° Northeast 600 690 33,000  Level FlightAware
05:51 39.2000 -86.5720 34° Northeast 601 692 33,000  Level FlightAware
05:52 39.2970 -86.4870 34° Northeast 601 692 33,000  Level FlightAware
05:52 39.4150 -86.3820 34° Northeast 599 689 33,000  Level FlightAware
05:53 39.5050 -86.3010 35° Northeast 599 689 33,000  Level FlightAware
05:54 39.6020 -86.2160 34° Northeast 598 688 33,000  Level FlightAware
05:54 39.6800 -86.1470 34° Northeast 598 688 33,000  Level FlightAware
05:55 39.7580 -86.0790 34° Northeast 598 688 33,000  Level FlightAware
05:56 39.8360 -86.0110 34° Northeast 598 688 33,000  Level FlightAware
05:56 39.9140 -85.9420 34° Northeast 598 688 33,000  Level FlightAware
05:57 40.0110 -85.8560 34° Northeast 598 688 33,000  Level FlightAware
05:58 40.0890 -85.7880 34° Northeast 598 688 33,000  Level FlightAware
05:59 40.1670 -85.7190 34° Northeast 598 688 33,000  Level FlightAware
06:00 40.4000 -85.4940 36° Northeast 590 679 33,000  Level FlightAware
06:00 40.5010 -85.3990 36° Northeast 590 679 33,000  Level FlightAware
06:01 40.6090 -85.2990 35° Northeast 592 681 33,000 60 Level FlightAware
06:02 40.7120 -85.2040 35° Northeast 591 680 33,100  Climbing FlightAware
06:03 40.8290 -85.0940 35° Northeast 586 674 33,000 -120 Descending FlightAware
06:03 40.9070 -85.0220 35° Northeast 586 674 33,000  Level FlightAware
06:04 41.0200 -84.9160 35° Northeast 588 677 33,000  Level FlightAware
06:05 41.1040 -84.8360 36° Northeast 589 678 33,000  Level FlightAware
06:06 41.1980 -84.7480 35° Northeast 590 679 33,000 60 Level FlightAware
06:06 41.2980 -84.6530 36° Northeast 592 681 33,100 60 Climbing FlightAware
06:07 41.3580 -84.5960 35° Northeast 593 682 33,100  Level FlightAware
06:08 41.4770 -84.4830 35° Northeast 593 682 33,100 -120 Level FlightAware
06:08 41.5770 -84.3870 36° Northeast 592 681 33,000 -120 Descending FlightAware
06:09 41.6500 -84.3160 36° Northeast 588 677 33,000  Level FlightAware
06:10 41.7620 -84.2080 36° Northeast 581 669 33,000  Level FlightAware
06:10 41.8290 -84.1430 36° Northeast 576 663 33,000  Level FlightAware
06:11 41.9130 -84.0610 36° Northeast 576 663 33,000  Level FlightAware
06:12 42.0050 -83.9710 36° Northeast 576 663 33,000  Level FlightAware
06:12 42.1110 -83.8680 36° Northeast 578 665 33,000 60 Level FlightAware
06:13 42.2040 -83.7770 36° Northeast 578 665 33,100 60 Climbing FlightAware
06:14 42.2660 -83.7150 36° Northeast 579 666 33,100 -120 Level FlightAware
06:15 42.3650 -83.6170 36° Northeast 578 665 33,000  Descending FlightAware
06:15 42.4370 -83.5470 36° Northeast 575 662 33,100  Climbing FlightAware
06:16 42.5420 -83.4420 36° Northeast 572 658 33,000 -120 Descending FlightAware
06:17 42.6250 -83.3590 36° Northeast 572 658 33,000  Level FlightAware
06:17 42.7280 -83.2540 37° Northeast 571 657 33,000  Level FlightAware
06:18 42.8070 -83.1750 36° Northeast 569 655 33,000  Level FlightAware
06:19 42.8950 -83.0850 37° Northeast 570 656 33,000  Level FlightAware
06:20 42.9910 -82.9890 36° Northeast 571 657 33,000  Level FlightAware
06:20 43.0790 -82.9000 36° Northeast 571 657 33,000  Level FlightAware
06:21 43.1780 -82.7980 37° Northeast 572 658 33,000  Level FlightAware
06:22 43.2590 -82.7160 36° Northeast 572 658 33,000 60 Level FlightAware
06:22 43.3380 -82.6360 36° Northeast 573 659 33,100 60 Climbing FlightAware
06:23 43.4370 -82.5390 35° Northeast 575 662 33,100 -120 Level FlightAware
06:24 43.5260 -82.4510 36° Northeast 574 661 33,000  Descending FlightAware
06:24 43.6250 -82.3520 36° Northeast 574 661 33,100  Climbing FlightAware
06:25 43.7210 -82.2550 36° Northeast 573 659 33,000 -120 Descending FlightAware
06:26 43.8080 -82.1660 36° Northeast 573 659 33,000  Level FlightAware
06:27 43.8980 -82.0750 36° Northeast 573 659 33,000  Level FlightAware
06:27 43.9800 -81.9930 36° Northeast 572 658 33,000  Level FlightAware
06:28 44.0520 -81.9190 36° Northeast 569 655 33,000  Level FlightAware
06:29 44.1450 -81.8240 36° Northeast 567 652 33,000  Level FlightAware
06:29 44.2510 -81.7160 36° Northeast 565 650 33,000  Level FlightAware
06:30 44.3370 -81.6270 36° Northeast 565 650 33,000  Level FlightAware
06:31 44.4410 -81.5180 37° Northeast 563 648 33,000  Level FlightAware
06:31 44.5230 -81.4340 36° Northeast 561 646 33,000  Level FlightAware
06:32 44.6150 -81.3380 37° Northeast 563 648 33,000  Level FlightAware
06:33 44.6990 -81.2510 36° Northeast 564 649 33,000  Level FlightAware
06:34 44.7930 -81.1520 37° Northeast 566 651 33,000  Level FlightAware
06:34 44.8850 -81.0550 37° Northeast 566 651 33,000  Level FlightAware
06:35 44.9650 -80.9700 37° Northeast 568 654 33,000  Level FlightAware
06:36 45.0610 -80.8670 37° Northeast 571 657 33,000  Level FlightAware
06:36 45.1400 -80.7830 37° Northeast 573 659 33,000  Level FlightAware
06:37 45.2330 -80.6840 37° Northeast 575 662 33,000 60 Level FlightAware
06:38 45.3310 -80.5780 37° Northeast 576 663 33,100 60 Climbing FlightAware
06:38 45.4160 -80.4870 37° Northeast 578 665 33,100 -120 Level FlightAware
06:39 45.5110 -80.3820 38° Northeast 577 664 33,000 -120 Descending FlightAware
06:40 45.5960 -80.2900 37° Northeast 574 661 33,000  Level FlightAware
06:41 45.6800 -80.1980 37° Northeast 574 661 33,000  Level FlightAware
06:41 45.7650 -80.1060 37° Northeast 573 659 33,000  Level FlightAware
06:42 45.8610 -79.9990 38° Northeast 571 657 33,000  Level FlightAware
06:43 45.9420 -79.9090 38° Northeast 570 656 33,000  Level FlightAware
06:43 46.0340 -79.8070 38° Northeast 569 655 33,000  Level FlightAware
06:44 46.1210 -79.7100 38° Northeast 568 654 33,000  Level FlightAware
06:45 46.2150 -79.6050 38° Northeast 569 655 33,000  Level FlightAware
06:45 46.2940 -79.5160 38° Northeast 571 657 33,000  Level FlightAware
06:46 46.3760 -79.4140 41° Northeast 571 657 33,000  Level FlightAware
06:47 46.4490 -79.2890 50° Northeast 571 657 33,000 60 Level FlightAware
06:48 46.5160 -79.1740 50° Northeast 572 658 33,100 60 Climbing FlightAware
06:48 46.5870 -79.0510 50° Northeast 570 656 33,100 -120 Level FlightAware
06:49 46.6630 -78.9180 50° Northeast 569 655 33,000 -60 Descending FlightAware
06:50 46.7560 -78.7530 51° Northeast 567 652 33,000 240 Level FlightAware
06:51 46.8220 -78.6380 50° Northeast 566 651 33,400 840 Climbing FlightAware
06:51 46.8950 -78.5080 51° Northeast 567 652 34,200 840 Climbing FlightAware
06:52 46.9850 -78.3490 50° Northeast 565 650 34,800 480 Climbing FlightAware
06:53 47.0380 -78.2550 50° Northeast 564 649 35,000 120 Climbing FlightAware
06:54 47.1100 -78.1300 50° Northeast 564 649 35,000  Level FlightAware
06:54 47.1670 -78.0300 50° Northeast 564 649 35,000  Level FlightAware
06:55 47.2240 -77.9300 50° Northeast 564 649 35,000  Level FlightAware
06:56 47.2810 -77.8300 50° Northeast 564 649 35,000  Level FlightAware
06:56 47.3380 -77.7290 50° Northeast 564 649 35,000  Level FlightAware
06:57 47.4090 -77.6040 50° Northeast 564 649 35,000  Level FlightAware
06:58 47.4660 -77.5030 50° Northeast 564 649 35,000  Level FlightAware
06:58 47.5230 -77.4030 50° Northeast 564 649 35,000  Level FlightAware
06:59 47.5800 -77.3020 50° Northeast 564 649 35,000  Level FlightAware
07:00 47.6370 -77.2010 50° Northeast 564 649 35,000  Level FlightAware
07:01 47.7080 -77.0750 50° Northeast 564 649 35,000  Level FlightAware
07:01 47.7650 -76.9740 50° Northeast 564 649 35,000  Level FlightAware
07:02 47.8220 -76.8730 50° Northeast 564 649 35,000  Level FlightAware
07:03 47.9833 -76.4667 50° Northeast 570 656 35,000  Level Montreal Center
07:04 48.1000 -76.2667 49° Northeast 570 656 35,000  Level Montreal Center
07:05 48.2000 -76.1000 48° Northeast 570 656 35,000  Level Montreal Center
07:06 48.3000 -75.8833 55° Northeast 560 644 35,000  Level Montreal Center
07:07 48.3833 -75.7167 53° Northeast 570 656 35,000  Level Montreal Center
07:08 48.4833 -75.5167 53° Northeast 570 656 35,000  Level Montreal Center
07:09 48.5500 -75.3000 65° Northeast 570 656 35,000  Level Montreal Center
07:10 48.6333 -75.0833 60° Northeast 570 656 35,000  Level Montreal Center
07:11 48.7167 -74.8667 60° Northeast 570 656 35,000 -60 Level Montreal Center
07:12 48.7667 -74.6667 69° East 570 656 34,900  Descending Montreal Center
07:13 48.8500 -74.4333 61° Northeast 570 656 35,000  Climbing Montreal Center
07:14 48.9167 -74.2333 63° Northeast 570 656 35,000  Level Montreal Center
07:15 49.0000 -74.0000 61° Northeast 570 656 35,000  Level Montreal Center
07:16 49.0667 -73.7833 65° Northeast 580 667 35,000  Level Montreal Center
07:17 49.1333 -73.5500 66° East 580 667 35,000  Level Montreal Center
07:18 49.2167 -73.3333 59° Northeast 580 667 35,000  Level Montreal Center
07:19 49.2833 -73.1333 63° Northeast 570 656 35,000  Level Montreal Center
07:20 49.3667 -72.9167 59° Northeast 570 656 35,000 -60 Level Montreal Center
07:21 49.4333 -72.6833 66° East 560 644 34,900  Descending Montreal Center
07:22 49.5000 -72.4667 65° Northeast 560 644 35,000  Climbing Montreal Center
07:23 49.5667 -72.2500 65° Northeast 560 644 35,000  Level Montreal Center
07:24 49.6333 -72.0167 66° East 570 656 35,100  Climbing Montreal Center
07:25 49.7000 -71.8000 64° Northeast 570 656 35,000 -60 Descending Montreal Center
07:26 49.7667 -71.5833 64° Northeast 570 656 35,000  Level Montreal Center
07:27 49.8500 -71.3667 59° Northeast 570 656 35,000  Level Montreal Center
07:28 49.9000 -71.1333 72° East 570 656 35,000  Level Montreal Center
07:29 49.9833 -70.9167 59° Northeast 570 656 35,000  Level Montreal Center
07:30 50.0500 -70.6667 67° East 560 644 35,000  Level Montreal Center
07:31 50.1167 -70.4500 64° Northeast 570 656 35,000  Level Montreal Center
07:32 50.1667 -70.2333 70° East 570 656 35,000  Level Montreal Center
07:33 50.2333 -70.0167 64° Northeast 570 656 35,000  Level Montreal Center
07:34 50.3000 -69.7667 67° East 570 656 35,000  Level Montreal Center
07:35 50.3667 -69.5500 64° Northeast 560 644 35,000  Level Montreal Center
07:36 50.4333 -69.3333 64° Northeast 570 656 35,000  Level Montreal Center
07:37 50.4833 -69.1167 70° East 570 656 35,000  Level Montreal Center
07:38 50.5667 -68.8667 62° Northeast 560 644 35,000 -60 Level Montreal Center
07:39 50.6167 -68.6333 71° East 570 656 34,900  Descending Montreal Center
07:40 50.6833 -68.4167 64° Northeast 570 656 35,000  Climbing Montreal Center
07:41 50.7333 -68.1667 72° East 570 656 35,000  Level Montreal Center
07:42 50.8000 -67.9333 66° East 570 656 35,000  Level Montreal Center
07:43 50.8667 -67.6833 67° East 570 656 35,000  Level Montreal Center
07:44 50.9167 -67.4667 70° East 570 656 35,000  Level Montreal Center
07:45 50.9833 -67.2333 66° East 580 667 35,000 -60 Level Montreal Center
07:46 51.0500 -66.9833 67° East 580 667 34,900  Descending Montreal Center
07:47 51.1000 -66.7500 71° East 580 667 35,000  Climbing Montreal Center
07:48 51.1667 -66.5000 67° East 590 679 35,000  Level Montreal Center
07:49 51.2333 -66.2667 65° Northeast 590 679 35,000  Level Montreal Center
07:50 51.3000 -66.0167 67° East 590 679 35,000  Level Montreal Center
07:51 51.3333 -65.7833 77° East 590 679 35,000  Level Montreal Center
07:52 51.4000 -65.5333 67° East 590 679 35,000  Level Montreal Center
07:52 51.4333 -65.4333 62° Northeast 590 679 35,000 -120 Level Gander Center
07:53 51.5000 -65.2000 65° Northeast 590 679 34,900  Descending Gander Center
07:54 51.5167 -65.0667 79° East 590 679 35,000 60 Climbing Moncton Center
07:55 51.5833 -64.8333 65° Northeast 590 679 35,000  Level Moncton Center
07:56 51.6333 -64.5833 72° East 590 679 35,000  Level Moncton Center
07:56 51.6667 -64.4667 65° Northeast 590 679 35,000  Level Gander Center
07:57 51.6833 -64.3167 80° East 590 679 35,000  Level Moncton Center
07:58 51.7500 -64.0667 67° East 590 679 35,000  Level Moncton Center
07:58 51.7667 -63.9500 77° East 590 679 35,000  Level Gander Center
07:59 51.8167 -63.7167 71° East 590 679 35,000  Level Gander Center
08:00 51.8667 -63.4500 73° East 590 679 35,000  Level Gander Center
08:01 51.9333 -63.2000 67° East 600 690 35,000  Level Gander Center
08:02 51.9833 -62.9333 73° East 590 679 35,000  Level Gander Center
08:03 52.0333 -62.7000 71° East 590 679 35,000  Level Gander Center
08:04 52.0667 -62.5500 70° East 590 679 35,000  Level Moncton Center
08:05 52.1167 -62.3000 72° East 590 679 35,000  Level Moncton Center
08:05 52.1333 -62.1833 77° East 590 679 35,000 -120 Level Gander Center
08:06 52.1833 -61.9333 72° East 590 679 34,900  Descending Gander Center
08:07 52.2000 -61.8000 78° East 590 679 35,000 60 Climbing Moncton Center
08:08 52.2667 -61.5500 66° East 590 679 35,000  Level Moncton Center
08:09 52.3333 -61.3000 66° East 580 667 35,000  Level Moncton Center
08:09 52.3833 -61.2000 51° Northeast 580 667 35,000  Level Gander Center
08:10 52.4000 -61.0833 77° East 580 667 35,000  Level Moncton Center
08:11 52.4667 -60.8333 66° East 580 667 35,000  Level Moncton Center
08:11 52.5000 -60.7000 68° East 580 667 35,000  Level Gander Center
08:12 52.5500 -60.4833 69° East 580 667 35,000 -540 Level Gander Center
08:13 52.6167 -60.2333 66° East 580 667 34,000 -1,020 Descending Gander Center
08:14 52.6833 -59.9833 66° East 590 679 33,000 -540 Descending Gander Center
08:15 52.7500 -59.7333 66° East 590 679 33,000  Level Gander Center
08:16 52.8167 -59.4833 66° East 590 679 33,000  Level Gander Center
08:17 52.8833 -59.2333 66° East 590 679 33,000  Level Gander Center
08:18 52.9167 -59.1000 67° East 590 679 33,000  Level Moncton Center
08:19 52.9833 -58.8333 67° East 590 679 33,000  Level Moncton Center
08:20 53.0333 -58.5833 72° East 590 679 33,000  Level Moncton Center
08:20 53.0833 -58.4667 54° Northeast 590 679 33,000  Level Gander Center
08:21 53.1000 -58.3500 77° East 590 679 33,000  Level Moncton Center
08:22 53.1667 -58.0833 67° East 580 667 33,000  Level Moncton Center
08:22 53.1833 -57.9833 74° East 580 667 33,000  Level Gander Center
08:23 53.2167 -57.8333 70° East 580 667 33,000  Level Moncton Center
08:24 53.2833 -57.5667 67° East 580 667 33,000  Level Moncton Center
08:25 53.3333 -57.3333 70° East 580 667 33,000  Level Moncton Center
08:26 53.3833 -57.0667 72° East 580 667 33,000  Level Moncton Center
08:26 53.4167 -56.9667 61° Northeast 580 667 33,000 -120 Level Gander Center
08:27 53.4833 -56.7333 64° Northeast 570 656 32,900 -120 Descending Gander Center
08:28 53.5167 -56.5667 71° East 560 644 32,900 60 Level Moncton Center
08:29 53.5667 -56.3333 70° East 550 633 33,000  Climbing Moncton Center
08:30 53.6167 -56.1000 70° East 560 644 33,000  Level Moncton Center
08:30 53.6333 -55.9833 76° East 560 644 33,000  Level Gander Center
08:31 53.6833 -55.7500 70° East 560 644 33,000  Level Gander Center
08:32 53.7167 -55.6000 69° East 560 644 33,000  Level Moncton Center
08:32 53.7500 -55.4833 64° Northeast 560 644 33,000  Level Gander Center
08:33 53.8000 -55.2500 70° East 560 644 33,000  Level Gander Center
08:34 53.8500 -54.9833 72° East 560 644 33,000  Level Gander Center
08:35 53.9000 -54.7500 70° East 560 644 33,000  Level Gander Center
08:36 53.9333 -54.4833 78° East 560 644 33,000  Level Gander Center
08:37 53.9833 -54.2500 70° East 560 644 33,000  Level Gander Center
08:38 54.0500 -54.0167 64° Northeast 560 644 33,000  Level Gander Center
08:39 54.1000 -53.7500 72° East 560 644 33,000  Level Gander Center
08:40 54.1667 -53.5000 65° Northeast 560 644 33,000  Level Gander Center
08:41 54.2167 -53.2667 70° East 560 644 33,000  Level Gander Center
08:42 54.2833 -53.0167 65° Northeast 560 644 33,000  Level Gander Center
08:43 54.3333 -52.7833 70° East 550 633 33,000 -60 Level Gander Center
08:44 54.3833 -52.5500 70° East 550 633 32,900  Descending Gander Center
08:45 54.4500 -52.3000 65° Northeast 540 621 33,000  Climbing Gander Center
08:46 54.5000 -52.0500 71° East 550 633 33,000  Level Gander Center
08:47 54.5500 -51.8167 70° East 550 633 33,000  Level Gander Center
08:48 54.6167 -51.5667 65° Northeast 550 633 33,000  Level Gander Center
08:49 54.6667 -51.3167 71° East 560 644 33,000 -60 Level Gander Center
08:50 54.7167 -51.0500 72° East 550 633 32,900 -60 Descending Gander Center
08:51 54.7833 -50.8333 62° Northeast 550 633 32,900  Level Gander Center
08:52 54.8167 -50.5500 78° East 550 633 33,000  Climbing Gander Center
08:55 54.9314 -50.2071 60° Northeast  Level FlightAware Approximate
09:02 55.0554 -48.3930 86° East  Level FlightAware Approximate
09:03 55.0624 -48.1305 87° East  Level FlightAware Approximate
09:04 55.0689 -47.8680 87° East  Level FlightAware Approximate
09:05 55.0747 -47.6053 88° East  Level FlightAware Approximate
09:06 55.0801 -47.3426 88° East  Level FlightAware Approximate
09:07 55.0848 -47.0798 88° East  Level FlightAware Approximate
09:08 55.0890 -46.8170 88° East  Level FlightAware Approximate
09:09 55.0927 -46.5541 89° East  Level FlightAware Approximate
09:10 55.0957 -46.2911 89° East  Level FlightAware Approximate
09:11 55.0982 -46.0281 89° East  Level FlightAware Approximate
09:12 55.1002 -45.7651 89° East  Level FlightAware Approximate
09:13 55.1015 -45.5021 89° East  Level FlightAware Approximate
09:14 55.1023 -45.2391 90° East  Level FlightAware Approximate
09:15 55.1026 -44.9760 90° East  Level FlightAware Approximate
09:16 55.1022 -44.7130 90° East  Level FlightAware Approximate
09:17 55.1013 -44.4499 90° East  Level FlightAware Approximate
09:18 55.0999 -44.1869 90° East  Level FlightAware Approximate
09:19 55.0978 -43.9239 91° East  Level FlightAware Approximate
09:20 55.0952 -43.6609 91° East  Level FlightAware Approximate
09:21 55.0921 -43.3979 91° East  Level FlightAware Approximate
09:22 55.0883 -43.1351 91° East  Level FlightAware Approximate
09:23 55.0840 -42.8722 92° East  Level FlightAware Approximate
09:24 55.0792 -42.6094 92° East  Level FlightAware Approximate
09:25 55.0737 -42.3467 92° East  Level FlightAware Approximate
09:26 55.0677 -42.0841 92° East  Level FlightAware Approximate
09:27 55.0612 -41.8215 92° East  Level FlightAware Approximate
09:28 55.0540 -41.5591 93° East  Level FlightAware Approximate
09:29 55.0463 -41.2967 93° East  Level FlightAware Approximate
09:30 55.0381 -41.0345 93° East  Level FlightAware Approximate
09:31 55.0293 -40.7723 93° East  Level FlightAware Approximate
09:32 55.0199 -40.5103 93° East  Level FlightAware Approximate
09:33 55.0100 -40.2484 94° East  Level FlightAware Approximate
09:34 55.0005 -39.9866 86° East  Level FlightAware Approximate
09:35 55.0110 -39.7248 86° East  Level FlightAware Approximate
09:36 55.0208 -39.4629 86° East  Level FlightAware Approximate
09:37 55.0301 -39.2008 86° East  Level FlightAware Approximate
09:38 55.0389 -38.9386 87° East  Level FlightAware Approximate
09:39 55.0471 -38.6764 87° East  Level FlightAware Approximate
09:40 55.0547 -38.4140 87° East  Level FlightAware Approximate
09:41 55.0617 -38.1515 87° East  Level FlightAware Approximate
09:42 55.0682 -37.8890 87° East  Level FlightAware Approximate
09:43 55.0741 -37.6263 88° East  Level FlightAware Approximate
09:44 55.0795 -37.3636 88° East  Level FlightAware Approximate
09:45 55.0843 -37.1008 88° East  Level FlightAware Approximate
09:46 55.0885 -36.8380 88° East  Level FlightAware Approximate
09:47 55.0921 -36.5751 89° East  Level FlightAware Approximate
09:48 55.0952 -36.3121 89° East  Level FlightAware Approximate
09:49 55.0977 -36.0491 89° East  Level FlightAware Approximate
09:50 55.0997 -35.7861 89° East  Level FlightAware Approximate
09:51 55.1011 -35.5231 89° East  Level FlightAware Approximate
09:52 55.1019 -35.2601 90° East  Level FlightAware Approximate
09:53 55.1022 -34.9970 90° East  Level FlightAware Approximate
09:54 55.1018 -34.7340 90° East  Level FlightAware Approximate
09:55 55.1010 -34.4709 90° East  Level FlightAware Approximate
09:56 55.0995 -34.2079 91° East  Level FlightAware Approximate
09:57 55.0976 -33.9449 91° East  Level FlightAware Approximate
09:58 55.0951 -33.6819 91° East  Level FlightAware Approximate
09:59 55.0920 -33.4190 91° East  Level FlightAware Approximate
10:00 55.0883 -33.1561 91° East  Level FlightAware Approximate
10:01 55.0841 -32.8932 92° East  Level FlightAware Approximate
10:02 55.0793 -32.6305 92° East  Level FlightAware Approximate
10:03 55.0739 -32.3677 92° East  Level FlightAware Approximate
10:04 55.0680 -32.1051 92° East  Level FlightAware Approximate
10:05 55.0615 -31.8425 92° East  Level FlightAware Approximate
10:06 55.0545 -31.5801 93° East  Level FlightAware Approximate
10:07 55.0468 -31.3177 93° East  Level FlightAware Approximate
10:08 55.0387 -31.0554 93° East  Level FlightAware Approximate
10:09 55.0299 -30.7933 93° East  Level FlightAware Approximate
10:10 55.0206 -30.5312 93° East  Level FlightAware Approximate
10:11 55.0107 -30.2693 94° East  Level FlightAware Approximate
10:12 55.0003 -30.0075 94° East  Level FlightAware Approximate
10:13 55.0102 -29.7457 86° East  Level FlightAware Approximate
10:14 55.0201 -29.4838 86° East  Level FlightAware Approximate
10:15 55.0295 -29.2218 86° East  Level FlightAware Approximate
10:16 55.0383 -28.9596 87° East  Level FlightAware Approximate
10:17 55.0465 -28.6974 87° East  Level FlightAware Approximate
10:18 55.0542 -28.4350 87° East  Level FlightAware Approximate
10:19 55.0613 -28.1725 87° East  Level FlightAware Approximate
10:20 55.0679 -27.9100 87° East  Level FlightAware Approximate
10:21 55.0738 -27.6473 88° East  Level FlightAware Approximate
10:22 55.0793 -27.3846 88° East  Level FlightAware Approximate
10:23 55.0841 -27.1218 88° East  Level FlightAware Approximate
10:24 55.0884 -26.8590 88° East  Level FlightAware Approximate
10:25 55.0921 -26.5961 88° East  Level FlightAware Approximate
10:26 55.0953 -26.3332 89° East  Level FlightAware Approximate
10:27 55.0979 -26.0702 89° East  Level FlightAware Approximate
10:28 55.0999 -25.8072 89° East  Level FlightAware Approximate
10:29 55.1014 -25.5441 89° East  Level FlightAware Approximate
10:30 55.1022 -25.2811 90° East  Level FlightAware Approximate
10:31 55.1026 -25.0181 90° East  Level FlightAware Approximate
10:32 55.1023 -24.7550 90° East  Level FlightAware Approximate
10:33 55.1015 -24.4920 90° East  Level FlightAware Approximate
10:34 55.1001 -24.2289 90° East  Level FlightAware Approximate
10:35 55.0982 -23.9659 91° East  Level FlightAware Approximate
10:36 55.0957 -23.7029 91° East  Level FlightAware Approximate
10:37 55.0926 -23.4400 91° East  Level FlightAware Approximate
10:38 55.0890 -23.1771 91° East  Level FlightAware Approximate
10:39 55.0848 -22.9142 91° East  Level FlightAware Approximate
10:40 55.0800 -22.6515 92° East  Level FlightAware Approximate
10:41 55.0746 -22.3887 92° East  Level FlightAware Approximate
10:42 55.0687 -22.1261 92° East  Level FlightAware Approximate
10:43 55.0623 -21.8635 92° East  Level FlightAware Approximate
10:44 55.0552 -21.6010 93° East  Level FlightAware Approximate
10:45 55.0476 -21.3387 93° East  Level FlightAware Approximate
10:46 55.0395 -21.0764 93° East  Level FlightAware Approximate
10:47 55.0307 -20.8142 93° East  Level FlightAware Approximate
10:48 55.0214 -20.5522 93° East  Level FlightAware Approximate
10:49 55.0116 -20.2902 94° East  Level FlightAware Approximate
10:50 55.0012 -20.0284 94° East  Level FlightAware Approximate
10:51 54.9712 -19.7717 102° East  Level FlightAware Approximate
10:52 54.9384 -19.5159 102° East  Level FlightAware Approximate
10:53 54.9051 -19.2605 103° East  Level FlightAware Approximate
10:54 54.8712 -19.0056 103° East  Level FlightAware Approximate
10:55 54.8368 -18.7511 103° East  Level FlightAware Approximate
10:56 54.8019 -18.4970 103° East  Level FlightAware Approximate
10:57 54.7673 -18.2430 103° East  Level FlightAware Approximate
10:58 54.7323 -17.9894 103° East  Level FlightAware Approximate
10:59 54.6968 -17.7362 104° East  Level FlightAware Approximate
11:00 54.6607 -17.4835 104° East  Level FlightAware Approximate
11:01 54.6241 -17.2313 104° East  Level FlightAware Approximate
11:02 54.5869 -16.9795 104° East  Level FlightAware Approximate
11:03 54.5493 -16.7281 104° East  Level FlightAware Approximate
11:04 54.5111 -16.4772 105° East  Level FlightAware Approximate
11:05 54.4724 -16.2268 105° East  Level FlightAware Approximate
11:06 54.4332 -15.9769 105° East  Level FlightAware Approximate
11:07 54.3934 -15.7275 105° East  Level FlightAware Approximate
11:08 54.3532 -15.4785 105° East  Level FlightAware Approximate
11:09 54.3125 -15.2301 106° East  Level FlightAware Approximate
11:10 54.2712 -14.9821 106° East  Level FlightAware Approximate
11:11 54.2294 -14.7346 106° East  Level FlightAware Approximate
11:12 54.1871 -14.4876 106° East  Level FlightAware Approximate
11:13 54.1444 -14.2412 106° East  Level FlightAware Approximate
11:14 54.1030 -13.9943 105° East  Level FlightAware Approximate
11:15 54.0620 -13.7476 107° East  Level FlightAware Approximate
11:16 54.0176 -13.5027 107° East  Level FlightAware Approximate
11:17 53.9727 -13.2583 107° East  Level FlightAware Approximate
11:18 53.9273 -13.0145 107° East  Level FlightAware Approximate
11:18 54.5430 -13.1890 108° East 513 590 37,000  Level FlightAware
11:19 53.8814 -12.7712 108° East  Level FlightAware Approximate
11:19 54.5010 -13.0280 114° Southeast 514 592 37,000  Level FlightAware
11:20 54.4600 -12.8690 114° Southeast 512 589 37,000  Level FlightAware
11:20 54.4230 -12.7320 115° Southeast 512 589 37,000  Level FlightAware
11:21 54.3670 -12.5220 115° Southeast 37,000  Level FlightAware
11:22 54.3200 -12.3490 115° Southeast 509 586 37,000  Level FlightAware
11:23 54.2700 -12.1660 115° Southeast 509 586 37,000  Level FlightAware
11:24 54.1850 -11.8550 115° Southeast 508 585 37,000  Level FlightAware
11:25 54.1130 -11.6010 116° Southeast 512 589 37,000  Level FlightAware
11:26 54.0800 -11.4850 116° Southeast 507 583 37,000  Level FlightAware
11:27 54.0310 -11.3110 116° Southeast 508 585 37,000  Level FlightAware
11:27 53.9850 -11.1490 116° Southeast 507 583 37,000  Level FlightAware
11:28 53.9390 -10.9910 116° Southeast 510 587 37,000  Level FlightAware
11:29 53.8770 -10.7750 116° Southeast 510 587 37,000  Level FlightAware
11:30 53.8380 -10.6390 116° Southeast 510 587 37,000  Level FlightAware
11:30 53.7940 -10.4890 116° Southeast 510 587 37,000  Level FlightAware
11:31 53.7510 -10.3470 117° Southeast 510 587 37,000  Level FlightAware
11:32 53.7090 -10.2050 117° Southeast 511 588 37,000  Level FlightAware
11:33 53.6560 -10.0270 117° Southeast 509 586 37,000  Level FlightAware
11:33 53.6130 -9.8840 117° Southeast 509 586 37,000 60 Level FlightAware
11:34 53.5750 -9.7600 117° Southeast 511 588 37,100 60 Climbing FlightAware
11:35 53.5330 -9.6210 117° Southeast 509 586 37,100 -120 Level FlightAware
11:35 53.4780 -9.4410 117° Southeast 508 585 37,000 -60 Descending FlightAware
11:36 53.4120 -9.2260 117° Southeast 506 582 37,000 -780 Level FlightAware
11:38 53.3361 -8.9839 117° Southeast 464 534 35,400  Descending FlightAware UK
11:38 53.3300 -8.9650 117° Southeast 504 580 37,000  Climbing FlightAware
11:38 53.3034 -8.8800 117° Southeast 462 532 35,400 -2,520 Descending FlightAware UK
11:38 53.2837 -8.8176 118° Southeast 464 534 35,500 120 Climbing FlightAware UK
11:39 53.2641 -8.7553 118° Southeast 464 534 35,500 2,640 Level FlightAware UK
11:39 53.2550 -8.7270 118° Southeast 502 578 37,000  Climbing FlightAware
11:39 53.2248 -8.6313 118° Southeast 460 529 35,500 -2,400 Descending FlightAware UK
11:40 53.2051 -8.5696 118° Southeast 460 529 35,500 -180 Level FlightAware UK
11:40 53.1855 -8.5078 118° Southeast 460 529 35,400 2,760 Descending FlightAware UK
11:40 53.1760 -8.4790 118° Southeast 501 577 37,000  Climbing FlightAware
11:40 53.1523 -8.4044 118° Southeast 460 529 35,400 -2,880 Descending FlightAware UK
11:41 53.1325 -8.3427 118° Southeast 462 532 35,400  Level FlightAware UK
11:41 53.1126 -8.2810 118° Southeast 460 529 35,400 3,060 Level FlightAware UK
11:41 53.1060 -8.2600 118° Southeast 506 582 37,000  Climbing FlightAware
11:41 53.0927 -8.2193 118° Southeast 460 529 35,400 -5,700 Descending FlightAware UK
11:41 53.0794 -8.1783 118° Southeast 462 532 35,400  Level FlightAware UK
11:42 53.0595 -8.1168 118° Southeast 462 532 35,400  Level FlightAware UK
11:42 53.0394 -8.0554 118° Southeast 462 532 35,400  Level FlightAware UK
11:42 53.0193 -7.9939 119° Southeast 464 534 35,400 4,320 Level FlightAware UK
11:42 53.0220 -8.0030 119° Southeast 506 582 37,000 60 Climbing FlightAware
11:43 52.9519 -7.7893 119° Southeast 464 534 35,500 60 Descending FlightAware UK
11:44 52.9430 -7.7650 119° Southeast 505 581 37,100  Climbing FlightAware
11:44 52.9186 -7.6872 119° Southeast 464 534 35,500 -2,880 Descending FlightAware UK
11:44 52.8984 -7.6261 119° Southeast 460 529 35,500 3,060 Level FlightAware UK
11:44 52.8920 -7.6090 119° Southeast 504 580 37,000 -240 Climbing FlightAware
11:45 52.8648 -7.5245 119° Southeast 460 529 35,400 -2,640 Descending FlightAware UK
11:45 52.8445 -7.4639 119° Southeast 460 529 35,400 4,560 Level FlightAware UK
11:45 52.8460 -7.4710 119° Southeast 505 581 37,000  Climbing FlightAware
11:45 52.8242 -7.4031 119° Southeast 458 527 35,400 -2,940 Descending FlightAware UK
11:46 52.8040 -7.3424 119° Southeast 458 527 35,400 3,840 Level FlightAware UK
11:46 52.8000 -7.3320 119° Southeast 506 582 37,000  Climbing FlightAware
11:46 52.7769 -7.2615 119° Southeast 458 527 35,400 -2,760 Descending FlightAware UK
11:46 52.7563 -7.2008 119° Southeast 456 525 35,400 4,140 Level FlightAware UK
11:46 52.7560 -7.2000 119° Southeast 506 582 37,000  Climbing FlightAware
11:47 52.7285 -7.1187 119° Southeast 458 527 35,400 -2,640 Descending FlightAware UK
11:47 52.7073 -7.0560 119° Southeast 472 543 35,400 4,560 Level FlightAware UK
11:47 52.7100 -7.0660 119° Southeast 515 593 37,000 300 Climbing FlightAware
11:47 52.6862 -6.9935 119° Southeast 474 545 35,500 -2,760 Descending FlightAware UK
11:48 52.6648 -6.9315 120° Southeast 470 541 35,500 2,520 Level FlightAware UK
11:48 52.6490 -6.8870 120° Southeast 514 592 37,000  Climbing FlightAware
11:48 52.6154 -6.7880 120° Southeast 474 545 35,500  Descending FlightAware UK
11:48 52.6040 -6.7550 120° Southeast 504 580 37,000  Climbing FlightAware
11:49 52.5806 -6.6871 120° Southeast 466 536 35,500 -2,760 Descending FlightAware UK
11:49 52.5605 -6.6282 119° Southeast 464 534 35,500 3,000 Level FlightAware UK
11:49 52.5490 -6.5960 119° Southeast 498 573 37,000 -240 Climbing FlightAware
11:50 52.5265 -6.5297 119° Southeast 460 529 35,400 -2,700 Descending FlightAware UK
11:50 52.5060 -6.4710 120° Southeast 458 527 35,400 4,320 Level FlightAware UK
11:50 52.5050 -6.4680 120° Southeast 495 570 37,000  Climbing FlightAware
11:50 52.4725 -6.3731 120° Southeast 460 529 35,400  Descending FlightAware UK
11:51 52.4610 -6.3410 120° Southeast 497 572 37,000  Climbing FlightAware
11:51 52.4385 -6.2750 120° Southeast 462 532 35,400  Descending FlightAware UK
11:51 52.4080 -6.1900 120° Southeast 504 580 37,000 120 Climbing FlightAware
11:52 52.3822 -6.1171 120° Southeast 466 536 35,500 -2,460 Descending FlightAware UK
11:52 52.3612 -6.0575 120° Southeast 466 536 35,500 4,260 Level FlightAware UK
11:52 52.3620 -6.0610 120° Southeast 506 582 37,000  Climbing FlightAware
11:52 52.3401 -5.9977 120° Southeast 470 541 35,500 -2,760 Descending FlightAware UK
11:53 52.3187 -5.9375 120° Southeast 470 541 35,500 3,840 Level FlightAware UK
11:53 52.3150 -5.9280 120° Southeast 508 585 37,100  Climbing FlightAware
11:53 52.2906 -5.8578 120° Southeast 470 541 35,500 -2,760 Descending FlightAware UK
11:53 52.2694 -5.7979 120° Southeast 470 541 35,500 3,180 Level FlightAware UK
11:53 52.2620 -5.7780 120° Southeast 509 586 37,000  Climbing FlightAware
11:54 52.2338 -5.6983 120° Southeast 476 548 35,500 -2,400 Descending FlightAware UK
11:54 52.2123 -5.6390 121° Southeast 470 541 35,500 4,500 Level FlightAware UK
11:54 52.2140 -5.6430 121° Southeast 506 582 37,000  Climbing FlightAware
11:54 52.1909 -5.5798 121° Southeast 466 536 35,500 -2,880 Descending FlightAware UK
11:55 52.1752 -5.5177 112° Southeast 470 541 35,400 3,060 Descending FlightAware UK
11:55 52.1700 -5.4870 112° Southeast 494 568 37,000 180 Climbing FlightAware
11:55 52.1566 -5.4105 112° Southeast 470 541 35,500 -2,460 Descending FlightAware UK
11:55 52.1447 -5.3467 107° East 468 539 35,500 4,260 Level FlightAware UK
11:55 52.1440 -5.3480 107° East 491 565 37,000 -360 Climbing FlightAware
11:56 52.1329 -5.2831 107° East 470 541 35,400 -2,940 Descending FlightAware UK
11:56 52.1213 -5.2194 107° East 468 539 35,400 3,840 Level FlightAware UK
11:56 52.1190 -5.2070 107° East 489 563 37,000  Climbing FlightAware
11:56 52.1060 -5.1349 107° East 464 534 35,400 -2,760 Descending FlightAware UK
11:57 52.0945 -5.0716 106° East 464 534 35,400 3,420 Level FlightAware UK
11:57 52.0900 -5.0450 106° East 487 560 37,000  Climbing FlightAware
11:57 52.0758 -4.9662 106° East 468 539 35,400 -2,580 Descending FlightAware UK
11:58 52.0648 -4.9030 106° East 464 534 35,400 4,800 Level FlightAware UK
11:58 52.0650 -4.9040 106° East 489 563 37,000 300 Climbing FlightAware
11:58 52.0533 -4.8399 106° East 466 536 35,500 -2,880 Descending FlightAware UK
11:58 52.0416 -4.7759 107° East 472 543 35,400 3,720 Descending FlightAware UK
11:58 52.0380 -4.7600 107° East 490 564 37,000 240 Climbing FlightAware
11:59 52.0261 -4.6915 107° East 472 543 35,500 -2,520 Descending FlightAware UK
11:59 52.0143 -4.6280 107° East 472 543 35,500 3,540 Level FlightAware UK
11:59 52.0100 -4.6080 107° East 491 565 37,100  Climbing FlightAware
11:59 51.9987 -4.5434 107° East 474 545 35,500 -2,940 Descending FlightAware UK
12:00 51.9868 -4.4801 107° East 472 543 35,500 3,840 Level FlightAware UK
12:00 51.9840 -4.4670 107° East 491 565 37,100  Climbing FlightAware
12:00 51.9706 -4.3956 107° East 478 550 35,500 -2,400 Descending FlightAware UK
12:00 51.9549 -4.3112 107° East 476 548 35,500 3,420 Level FlightAware UK
12:00 51.9540 -4.3100 107° East 486 559 37,100  Climbing FlightAware
12:01 51.9389 -4.2276 107° East 472 543 35,500 -2,580 Descending FlightAware UK
12:01 51.9273 -4.1663 107° East 472 543 35,500 4,500 Level FlightAware UK
12:01 51.9280 -4.1710 107° East 480 552 37,000  Climbing FlightAware
12:01 51.9159 -4.1041 107° East 468 539 35,500 -2,760 Descending FlightAware UK
12:02 51.9043 -4.0427 107° East 468 539 35,400 3,180 Descending FlightAware UK
12:02 51.8990 -4.0180 107° East 475 547 37,000  Climbing FlightAware
12:02 51.8851 -3.9408 107° East 466 536 35,400 -2,580 Descending FlightAware UK
12:02 51.8734 -3.8802 107° East 464 534 35,400 4,800 Level FlightAware UK
12:02 51.8730 -3.8800 107° East 470 541 37,000  Climbing FlightAware
12:03 51.8617 -3.8199 107° East 460 529 35,400 -2,880 Descending FlightAware UK
12:03 51.8498 -3.7597 108° East 460 529 35,400 3,300 Level FlightAware UK
12:03 51.8440 -3.7320 108° East 474 545 37,000 120 Climbing FlightAware
12:04 51.8217 -3.6173 108° East 464 534 35,500  Descending FlightAware UK
12:04 51.8170 -3.5960 108° East 482 555 37,000  Climbing FlightAware
12:04 51.8015 -3.5144 108° East 476 548 35,500 120 Descending FlightAware UK
12:05 51.7900 -3.4580 108° East 485 558 37,100  Climbing FlightAware
12:05 51.7769 -3.3897 108° East 472 543 35,500 -2,760 Descending FlightAware UK
12:05 51.7647 -3.3270 107° East 468 539 35,500 3,180 Level FlightAware UK
12:05 51.7590 -3.3000 107° East 485 558 37,000  Climbing FlightAware
12:06 51.7407 -3.2037 107° East 466 536 35,500  Descending FlightAware UK
12:06 51.7320 -3.1610 107° East 491 565 37,000  Climbing FlightAware
12:06 51.7151 -3.0780 107° East 478 550 35,500  Descending FlightAware UK
12:07 51.7030 -3.0220 107° East 489 563 37,000  Climbing FlightAware
12:07 51.6897 -2.9523 107° East 472 543 35,500 -2,520 Descending FlightAware UK
12:07 51.6771 -2.8901 108° East 474 545 35,500 3,300 Level FlightAware UK
12:07 51.6720 -2.8670 108° East 488 562 37,000 6,420 Climbing FlightAware
12:07 51.6678 -2.8462 108° East 489 563 37,000 -3,360 Level FlightAware ADS-B
12:08 51.6519 -2.7651 108° East 474 545 35,500  Descending FlightAware UK
12:08 51.6452 -2.7356 108° East 489 563 37,000  Climbing FlightAware ADS-B
12:08 51.6305 -2.6618 108° East 478 550 35,500  Descending FlightAware UK
12:09 51.6219 -2.6222 108° East 488 562 37,000  Climbing FlightAware ADS-B
12:09 51.6091 -2.5589 108° East 476 548 35,500  Descending FlightAware UK
12:09 51.5979 -2.5059 108° East 485 558 37,000  Climbing FlightAware ADS-B
12:09 51.5840 -2.4350 108° East 474 545 35,500  Descending FlightAware UK
12:10 51.5766 -2.4002 108° East 484 557 37,000 -240 Climbing FlightAware ADS-B
12:10 51.5628 -2.3331 108° East 470 541 35,400  Descending FlightAware UK
12:10 51.5529 -2.2879 108° East 484 557 37,000  Climbing FlightAware ADS-B
12:11 51.5371 -2.2108 108° East 470 541 35,400  Descending FlightAware UK
12:11 51.5310 -2.1822 108° East 486 559 37,000  Climbing FlightAware ADS-B
12:11 51.5197 -2.1285 108° East 474 545 35,400  Descending FlightAware UK
12:11 51.5072 -2.0731 108° East 487 560 37,000 2,040 Climbing FlightAware ADS-B
12:12 51.4858 -1.9704 108° East 488 562 37,000 -1,860 Level FlightAware ADS-B
12:12 51.4715 -1.9023 108° East 478 550 35,500  Descending FlightAware UK
12:12 51.4592 -1.8632 108° East 491 565 37,000  Climbing FlightAware ADS-B
12:13 51.4329 -1.7864 108° East 478 550 35,500 180 Descending FlightAware UK
12:13 51.4230 -1.7577 108° East 493 567 37,100 2,220 Climbing FlightAware ADS-B
12:13 51.3899 -1.6615 119° Southeast 494 568 37,000 -1,920 Descending FlightAware ADS-B
12:14 51.3675 -1.5934 119° Southeast 478 550 35,500  Descending FlightAware UK
12:14 51.3564 -1.5619 119° Southeast 496 571 37,000 2,160 Climbing FlightAware ADS-B
12:14 51.3234 -1.4656 119° Southeast 496 571 37,000  Level FlightAware ADS-B
12:15 51.2894 -1.3664 119° Southeast 496 571 37,000 -1,860 Level FlightAware ADS-B
12:15 51.2681 -1.3043 119° Southeast 478 550 35,500  Descending FlightAware UK
12:15 51.2556 -1.2706 119° Southeast 496 571 37,000 2,100 Climbing FlightAware ADS-B
12:16 51.2216 -1.1715 119° Southeast 497 572 37,000  Level FlightAware ADS-B
12:16 51.1878 -1.0753 119° Southeast 497 572 37,000  Level FlightAware ADS-B
12:17 51.1542 -0.9796 119° Southeast 497 572 37,000 -240 Level FlightAware ADS-B
12:17 51.1200 -0.8808 119° Southeast 500 575 36,800 -720 Descending FlightAware ADS-B
12:18 51.0854 -0.7819 119° Southeast 492 566 36,300 -840 Descending FlightAware ADS-B
12:18 51.0620 -0.7160 119° Southeast 492 566 36,100 -480 Descending FlightAware ADS-B
12:19 51.0247 -0.6331 126° Southeast 495 570 35,900 -2,700 Descending FlightAware ADS-B
12:19 51.0029 -0.5884 126° Southeast 478 550 34,200 -600 Descending FlightAware UK
12:19 50.9806 -0.5453 126° Southeast 495 570 35,600 -420 Climbing FlightAware ADS-B
12:19 50.9595 -0.5030 126° Southeast 476 548 34,000 -420 Descending FlightAware UK
12:20 50.9374 -0.4609 126° Southeast 498 573 35,400 -540 Climbing FlightAware ADS-B
12:20 50.9068 -0.4020 126° Southeast 480 552 33,700 -600 Descending FlightAware UK
12:20 50.8914 -0.3740 126° Southeast 498 573 35,100 1,740 Climbing FlightAware ADS-B
12:21 50.8470 -0.2900 130° Southeast 498 573 34,900 -2,280 Descending FlightAware ADS-B
12:21 50.8185 -0.2332 130° Southeast 476 548 33,200 -600 Descending FlightAware UK
12:21 50.8019 -0.2026 130° Southeast 502 578 34,600 1,680 Climbing FlightAware ADS-B
12:22 50.7560 -0.1155 130° Southeast 503 579 34,400 -2,220 Descending FlightAware ADS-B
12:22 50.7197 -0.0471 130° Southeast 482 555 32,600 -600 Descending FlightAware UK
12:22 50.7116 -0.0312 130° Southeast 501 577 34,100 1,620 Climbing FlightAware ADS-B
12:23 50.6571 0.0719 130° Southeast 495 570 33,800 -2,280 Descending FlightAware ADS-B
12:23 50.6315 0.1199 130° Southeast 478 550 32,100 -420 Descending FlightAware UK
12:23 50.6128 0.1547 130° Southeast 497 572 33,600 1,560 Climbing FlightAware ADS-B
12:24 50.5650 0.2430 130° Southeast 496 571 33,300 -2,880 Descending FlightAware ADS-B
12:24 50.5339 0.3025 130° Southeast 476 548 31,100 -1,800 Descending FlightAware UK
12:24 50.5210 0.3258 130° Southeast 491 565 32,400 -3,300 Climbing FlightAware ADS-B
12:25 50.4992 0.3687 130° Southeast 472 543 29,800 -3,900 Descending FlightAware UK
12:25 50.4764 0.4143 130° Southeast 489 563 30,400 -3,540 Climbing FlightAware ADS-B
12:25 50.4491 0.4676 130° Southeast 462 532 27,700 -3,540 Descending FlightAware UK
12:25 50.4340 0.4940 130° Southeast 475 547 28,600 -3,000 Climbing FlightAware ADS-B
12:26 50.3980 0.5594 130° Southeast 448 516 25,900 -3,120 Descending FlightAware UK
12:26 50.3867 0.5795 130° Southeast 449 517 26,900 -2,640 Climbing FlightAware ADS-B
12:26 50.3576 0.6321 130° Southeast 426 490 24,600 -1,500 Descending FlightAware UK
12:27 50.3480 0.6450 130° Southeast 433 498 26,100 5,280 Climbing FlightAware
12:27 50.3312 0.6670 140° Southeast 434 499 26,100 -3,480 Level FlightAware ADS-B
12:27 50.3001 0.7014 140° Southeast 420 483 24,600 -2,280 Descending FlightAware UK
12:27 50.2620 0.7472 142° Southeast 416 479 24,500 -180 Descending FlightAware UK
12:28 50.2260 0.7957 139° Southeast 414 476 24,500 3,000 Level FlightAware UK
12:28 50.2200 0.8040 139° Southeast 431 496 26,000  Climbing FlightAware
12:28 50.1877 0.8410 139° Southeast 418 481 24,500 -2,520 Descending FlightAware UK
12:28 50.1566 0.8713 148° Southeast 418 481 24,500 4,080 Level FlightAware UK
12:29 50.1600 0.8680 148° Southeast 439 505 26,000  Climbing FlightAware
12:29 50.1061 0.9253 148° Southeast 420 483 24,500  Descending FlightAware UK
12:29 50.0960 0.9370 148° Southeast 436 502 26,000  Climbing FlightAware
12:30 50.0144 1.0218 148° Southeast 420 483 24,500  Descending FlightAware UK
12:30 50.0030 1.0320 148° Southeast 443 510 26,000  Climbing FlightAware
12:30 49.9630 1.0743 148° Southeast 418 481 24,500  Descending FlightAware UK
12:31 49.9390 1.0990 148° Southeast 443 510 26,000  Climbing FlightAware
12:31 49.8911 1.1489 148° Southeast 422 486 24,500 -300 Descending FlightAware UK
12:31 49.8650 1.1740 148° Southeast 438 504 25,800 -1,680 Climbing FlightAware
12:32 49.8299 1.2110 148° Southeast 414 476 23,500 -2,280 Descending FlightAware UK
12:32 49.7990 1.2440 148° Southeast 421 484 24,100 -2,760 Climbing FlightAware
12:32 49.7619 1.2859 148° Southeast 416 479 21,600 -3,000 Descending FlightAware UK
12:33 49.7310 1.3130 148° Southeast 432 497 22,100 -2,760 Climbing FlightAware
12:33 49.6800 1.3628 148° Southeast 408 470 19,400 -2,400 Descending FlightAware UK
12:34 49.6540 1.3910 148° Southeast 424 488 20,300 -420 Climbing FlightAware
12:34 49.5900 1.4580 146° Southeast 385 443 19,000 -2,340 Descending FlightAware
12:35 49.5310 1.5190 146° Southeast 374 430 17,200 -3,900 Descending FlightAware
12:35 49.4816 1.5647 146° Southeast 360 414 14,500 -2,100 Descending FlightAware UK
12:36 49.4710 1.5750 146° Southeast 365 420 15,800 -1,860 Climbing FlightAware
12:36 49.4225 1.6244 146° Southeast 350 403 13,200 -1,920 Descending FlightAware UK
12:36 49.4090 1.6380 146° Southeast 360 414 14,400 -120 Climbing FlightAware
12:37 49.3550 1.6930 146° Southeast 359 413 13,100 -1,740 Descending FlightAware
12:38 49.3020 1.7590 141° Southeast 353 406 12,100 -1,020 Descending FlightAware
12:38 49.2910 1.8030 111° Southeast 348 400 12,100 -2,400 Level FlightAware
12:38 49.2902 1.8599 111° Southeast 340 391 10,500 -180 Descending FlightAware UK
12:39 49.2850 1.9020 111° Southeast 344 396 12,000  Climbing FlightAware
12:39 49.2826 1.9448 111° Southeast 338 389 10,500  Descending FlightAware UK
12:39 49.2790 2.0110 111° Southeast 342 394 12,000 1,260 Climbing FlightAware
12:40 49.2750 2.1080 94° East 342 394 12,000  Level FlightAware
12:40 49.2717 2.1733 94° East 343 395 12,000  Level FlightAware ADS-B
12:41 49.2675 2.2687 94° East 325 374 12,000 -1,620 Level FlightAware ADS-B
12:41 49.2675 2.3092 94° East 312 359 10,500  Descending FlightAware UK
12:42 49.2636 2.3627 94° East 298 343 12,000 1,020 Climbing FlightAware ADS-B
12:43 49.2589 2.4373 95° East 266 306 11,700 -780 Descending FlightAware ADS-B
12:43 49.2551 2.5138 94° East 264 304 11,000 -660 Descending FlightAware ADS-B
12:44 49.2475 2.5767 100° East 260 299 10,900 -600 Descending FlightAware ADS-B
12:44 49.2399 2.6401 100° East 261 300 10,300 -1,080 Descending FlightAware ADS-B
12:45 49.2318 2.7099 100° East 258 297 9,600 -1,080 Descending FlightAware ADS-B
12:45 49.2280 2.7417 100° East 253 291 9,300 -1,020 Descending FlightAware ADS-B
12:46 49.2190 2.8210 100° East 252 290 8,500 -1,020 Descending FlightAware
12:47 49.2140 2.8680 99° East 248 285 8,100 -600 Descending FlightAware
12:47 49.2080 2.9170 101° East 237 273 8,000 -120 Descending FlightAware
12:47 49.2030 2.9590 100° East 242 278 8,000  Level FlightAware
12:48 49.1960 3.0100 102° East 250 288 8,000  Level FlightAware
12:48 49.1810 3.0580 116° Southeast 255 293 8,000  Level FlightAware
12:49 49.1680 3.0670 156° South 256 295 8,000 -600 Level FlightAware
12:49 49.1360 3.0720 174° South 257 296 7,600 -1,140 Descending FlightAware
12:50 49.1010 3.0750 177° South 250 288 7,000 -780 Descending FlightAware
12:50 49.0590 3.0580 195° South 237 273 6,700 -480 Descending FlightAware
12:51 49.0520 3.0390 241° Southwest 231 266 6,600 -1,200 Descending FlightAware
12:51 49.0480 2.9900 263° West 230 265 5,800 -1,800 Descending FlightAware
12:51 49.0470 2.9490 268° West 227 261 5,000 -1,140 Descending FlightAware
12:52 49.0450 2.9060 266° West 183 211 4,800 -660 Descending FlightAware
12:52 49.0430 2.8760 264° West 175 201 4,400 -1,320 Descending FlightAware
12:53 49.0410 2.8350 266° West 185 213 3,600 -1,200 Descending FlightAware
12:53 49.0390 2.7980 265° West 177 204 3,200 -780 Descending FlightAware
12:54 49.0390 2.7870 270° West 177 204 3,100 -1,080 Descending FlightAware
12:54 49.0360 2.7480 263° West 181 208 2,500 -1,200 Descending FlightAware
12:54 49.0355 2.7297 268° West 184 212 2,300 -1,140 Descending FlightAware ADS-B
12:54 49.0345 2.7106 265° West 180 207 2,000 -960 Descending FlightAware ADS-B
12:55 49.0334 2.6890 266° West 180 207 1,800 -840 Descending FlightAware ADS-B
12:55 49.0331 2.6814 267° West 181 208 1,700 -1,320 Descending FlightAware ADS-B
12:55 49.0322 2.6651 265° West 174 200 1,400 -1,020 Descending FlightAware ADS-B
12:55 49.0312 2.6465 265° West 159 183 1,200 -840 Descending FlightAware ADS-B
12:55 49.0309 2.6398 266° West 157 181 1,100 -840 Descending FlightAware ADS-B
12:56 49.0303 2.6298 265° West 156 180 1,000 -720 Descending FlightAware ADS-B
12:56 49.0297 2.6201 265° West 151 174 900 -1,020 Descending FlightAware ADS-B
12:56 49.0292 2.6107 265° West 148 170 700 -1,080 Descending FlightAware ADS-B
12:56 49.0288 2.6032 265° West 150 173 600 -840 Descending FlightAware ADS-B
12:56 49.0280 2.5863 266° West 151 174 400 -720 Descending FlightAware ADS-B
12:56 49.0274 2.5756 265° West 148 170 300 -300 Descending FlightAware ADS-B
12:57 49.0270 2.5490 269° West 147 169 200 -240 Descending FlightAware